Time;durP1;ratioP1;P1;durP2;ratioP2;P2;SDS_P1;SDS_P2;PMS_P1;PMS_P2;Temp;Humidity;BMP_temperature;BMP_pressure;BME280_temperature;BME280_humidity;BME280_pressure;Samples;Min_cycle;Max_cycle;Signal;HPM_P1;HPM_P2
2023/10/04 00:00:49;;;;;;;11.05;2.60;;;16.20;99.90;;;;;;5088564;28;20033;-72
2023/10/04 00:03:15;;;;;;;12.27;2.90;;;16.20;99.90;;;;;;5073484;28;20020;-72
2023/10/04 00:05:41;;;;;;;9.85;2.70;;;16.20;99.90;;;;;;5072935;28;20052;-72
2023/10/04 00:08:07;;;;;;;11.43;2.83;;;16.20;99.90;;;;;;5072082;28;20078;-71
2023/10/04 00:10:33;;;;;;;19.48;2.83;;;16.20;99.90;;;;;;5072753;28;20024;-71
2023/10/04 00:12:59;;;;;;;12.00;2.53;;;16.20;99.90;;;;;;5072994;28;20379;-71
2023/10/04 00:15:28;;;;;;;9.32;2.35;;;16.20;99.90;;;;;;5072661;28;20103;-72
2023/10/04 00:17:54;;;;;;;11.07;2.38;;;16.10;99.90;;;;;;5073071;28;20411;-72
2023/10/04 00:20:28;;;;;;;12.00;2.47;;;16.10;99.90;;;;;;5072220;28;20120;-71
2023/10/04 00:22:56;;;;;;;12.32;2.63;;;16.10;99.90;;;;;;5071952;28;20037;-72
2023/10/04 00:25:23;;;;;;;9.95;2.40;;;16.10;99.90;;;;;;5072767;28;20031;-71
2023/10/04 00:27:50;;;;;;;12.77;2.80;;;16.10;99.90;;;;;;5072936;28;20016;-71
2023/10/04 00:30:18;;;;;;;11.15;2.17;;;16.00;99.90;;;;;;5072331;28;20020;-71
2023/10/04 00:32:46;;;;;;;10.93;2.33;;;16.00;99.90;;;;;;5072319;28;20492;-72
2023/10/04 00:35:17;;;;;;;10.63;2.53;;;16.00;99.90;;;;;;5072390;28;20020;-71
2023/10/04 00:37:47;;;;;;;10.80;2.60;;;16.00;99.90;;;;;;5072933;28;20039;-71
2023/10/04 00:40:18;;;;;;;13.00;2.60;;;16.00;99.90;;;;;;5072454;28;20048;-71
2023/10/04 00:42:49;;;;;;;12.00;2.60;;;16.00;99.90;;;;;;5060081;28;20071;-72
2023/10/04 00:45:20;;;;;;;9.90;2.45;;;15.90;99.90;;;;;;5072237;28;20021;-71
2023/10/04 00:47:47;;;;;;;12.32;2.60;;;15.90;99.90;;;;;;5072814;28;20032;-71
2023/10/04 00:50:18;;;;;;;10.95;2.80;;;15.90;99.90;;;;;;5072418;28;20067;-71
2023/10/04 00:52:54;;;;;;;10.45;2.60;;;15.90;99.90;;;;;;5072440;28;20040;-72
2023/10/04 00:55:21;;;;;;;11.38;2.33;;;15.90;99.90;;;;;;5066600;28;20013;-71
2023/10/04 00:57:49;;;;;;;9.75;2.72;;;15.80;99.90;;;;;;5069299;28;20021;-72
2023/10/04 01:00:17;;;;;;;14.02;2.47;;;15.90;99.90;;;;;;5087380;28;20075;-72
2023/10/04 01:02:46;;;;;;;13.60;2.85;;;15.80;99.90;;;;;;5072167;28;20128;-72
2023/10/04 01:05:15;;;;;;;13.57;2.58;;;15.80;99.90;;;;;;5071694;28;20045;-71
2023/10/04 01:07:41;;;;;;;16.63;2.78;;;15.80;99.90;;;;;;5071643;28;20123;-71
2023/10/04 01:10:15;;;;;;;14.23;2.78;;;15.80;99.90;;;;;;5071852;28;20024;-71
2023/10/04 01:12:44;;;;;;;9.77;2.45;;;15.80;99.90;;;;;;5066555;28;20067;-71
2023/10/04 01:15:28;;;;;;;11.38;2.95;;;15.80;99.90;;;;;;5066491;28;20009;-71
2023/10/04 01:17:55;;;;;;;11.10;2.53;;;15.80;99.90;;;;;;5072072;28;20066;-71
2023/10/04 01:20:27;;;;;;;15.73;2.63;;;15.80;99.90;;;;;;5071187;28;20340;-71
2023/10/04 01:23:06;;;;;;;12.45;2.83;;;15.80;99.90;;;;;;5072049;28;20107;-72
2023/10/04 01:25:36;;;;;;;14.57;2.92;;;15.80;99.90;;;;;;5059530;28;20115;-71
2023/10/04 01:28:12;;;;;;;9.75;2.28;;;15.80;99.90;;;;;;5071330;28;20024;-72
2023/10/04 01:30:39;;;;;;;10.00;2.33;;;15.80;99.90;;;;;;5071457;28;20017;-71
2023/10/04 01:33:07;;;;;;;9.65;2.22;;;15.70;99.90;;;;;;5071649;28;20076;-71
2023/10/04 01:35:33;;;;;;;11.13;2.47;;;15.70;99.90;;;;;;5071170;28;20063;-71
2023/10/04 01:37:59;;;;;;;11.18;2.17;;;15.70;99.90;;;;;;5071577;28;20012;-71
2023/10/04 01:40:31;;;;;;;14.75;2.58;;;15.70;99.90;;;;;;5071781;28;20061;-71
2023/10/04 01:42:57;;;;;;;12.60;2.70;;;15.70;99.90;;;;;;5071046;28;20032;-71
2023/10/04 01:45:23;;;;;;;12.50;2.20;;;15.70;99.90;;;;;;5071023;28;20512;-71
2023/10/04 01:47:50;;;;;;;12.05;2.60;;;15.70;99.90;;;;;;5070086;28;20024;-71
2023/10/04 01:50:16;;;;;;;9.10;2.22;;;15.70;99.90;;;;;;5071236;28;20028;-71
2023/10/04 01:52:50;;;;;;;12.45;2.58;;;15.70;99.90;;;;;;5070916;28;20147;-71
2023/10/04 01:55:19;;;;;;;11.00;2.63;;;15.70;99.90;;;;;;5070858;28;20426;-71
2023/10/04 01:57:45;;;;;;;12.25;2.78;;;15.70;99.90;;;;;;5070762;28;20028;-71
2023/10/04 02:00:20;;;;;;;12.20;2.30;;;15.70;99.90;;;;;;5071005;28;20361;-71
2023/10/04 02:02:46;;;;;;;10.60;2.50;;;15.60;99.90;;;;;;5071187;28;20076;-71
2023/10/04 02:05:17;;;;;;;12.68;2.50;;;15.60;99.90;;;;;;5070759;28;20047;-71
2023/10/04 02:07:45;;;;;;;12.40;2.50;;;15.60;99.90;;;;;;5070880;28;20020;-71
2023/10/04 02:10:18;;;;;;;8.60;2.28;;;15.60;99.90;;;;;;5070438;28;20028;-71
2023/10/04 02:12:44;;;;;;;16.23;2.88;;;15.60;99.90;;;;;;5070590;28;20655;-71
2023/10/04 02:15:17;;;;;;;11.48;2.45;;;15.60;99.90;;;;;;5069715;28;20081;-71
2023/10/04 02:17:47;;;;;;;8.75;2.30;;;15.60;99.90;;;;;;5069899;28;20030;-71
2023/10/04 02:20:18;;;;;;;11.43;2.83;;;15.50;99.90;;;;;;5070455;28;20024;-71
2023/10/04 02:22:43;;;;;;;11.68;2.72;;;15.50;99.90;;;;;;5070478;28;20071;-71
2023/10/04 02:25:13;;;;;;;10.88;2.28;;;15.50;99.90;;;;;;5062685;28;20484;-71
2023/10/04 02:27:41;;;;;;;13.75;3.00;;;15.50;99.90;;;;;;5070103;28;20115;-71
2023/10/04 02:30:13;;;;;;;10.65;2.42;;;15.50;99.90;;;;;;5070408;28;20064;-72
2023/10/04 02:32:43;;;;;;;15.57;2.97;;;15.50;99.90;;;;;;5070516;28;20032;-71
2023/10/04 02:35:17;;;;;;;10.40;2.72;;;15.40;99.90;;;;;;5070555;28;20406;-71
2023/10/04 02:37:45;;;;;;;12.93;2.85;;;15.40;99.90;;;;;;5069880;28;20395;-71
2023/10/04 02:40:14;;;;;;;14.32;2.55;;;15.40;99.90;;;;;;5070275;28;20078;-71
2023/10/04 02:42:42;;;;;;;13.43;2.88;;;15.40;99.90;;;;;;5070013;28;20043;-71
2023/10/04 02:45:12;;;;;;;12.18;2.35;;;15.40;99.90;;;;;;5070051;28;20111;-71
2023/10/04 02:47:38;;;;;;;12.48;2.88;;;15.30;99.90;;;;;;5070023;28;20522;-71
2023/10/04 02:50:09;;;;;;;14.18;2.80;;;15.30;99.90;;;;;;5067682;28;20023;-71
2023/10/04 02:52:35;;;;;;;16.05;2.80;;;15.30;99.90;;;;;;5065124;28;20047;-73
2023/10/04 02:55:01;;;;;;;12.10;2.85;;;15.30;99.90;;;;;;5070039;28;20483;-71
2023/10/04 02:57:30;;;;;;;14.75;2.58;;;15.30;99.90;;;;;;5069935;28;20059;-71
2023/10/04 02:59:55;;;;;;;11.98;2.92;;;15.30;99.90;;;;;;5070137;28;20594;-71
2023/10/04 03:02:21;;;;;;;13.27;3.08;;;15.30;99.90;;;;;;5069766;28;20033;-71
2023/10/04 03:04:51;;;;;;;12.63;2.78;;;15.30;99.90;;;;;;5069416;28;20029;-71
2023/10/04 03:07:17;;;;;;;8.38;2.30;;;15.30;99.90;;;;;;5069909;28;20077;-71
2023/10/04 03:09:43;;;;;;;11.95;2.70;;;15.20;99.90;;;;;;5068579;28;20021;-71
2023/10/04 03:12:12;;;;;;;11.40;2.88;;;15.20;99.90;;;;;;5069262;28;20009;-71
2023/10/04 03:14:41;;;;;;;10.18;2.67;;;15.20;99.90;;;;;;5055596;28;20186;-71
2023/10/04 03:17:07;;;;;;;11.20;3.00;;;15.20;99.90;;;;;;5070023;28;20429;-72
2023/10/04 03:19:36;;;;;;;10.07;2.40;;;15.20;99.90;;;;;;5068955;28;20028;-71
2023/10/04 03:22:01;;;;;;;11.43;2.78;;;15.20;99.90;;;;;;5069880;28;20016;-72
2023/10/04 03:24:27;;;;;;;14.95;2.53;;;15.10;99.90;;;;;;5069921;28;20028;-72
2023/10/04 03:26:53;;;;;;;12.35;2.97;;;15.20;99.90;;;;;;5068533;28;20100;-70
2023/10/04 03:29:19;;;;;;;12.18;2.75;;;15.10;99.90;;;;;;5070333;28;20020;-72
2023/10/04 03:31:44;;;;;;;11.75;2.97;;;15.10;99.90;;;;;;5069935;28;20431;-72
2023/10/04 03:34:10;;;;;;;15.48;3.03;;;15.10;99.90;;;;;;5070384;28;20392;-71
2023/10/04 03:36:39;;;;;;;15.43;2.88;;;15.10;99.90;;;;;;5069958;28;20182;-72
2023/10/04 03:39:04;;;;;;;12.80;2.88;;;15.10;99.90;;;;;;5069954;28;20020;-71
2023/10/04 03:41:30;;;;;;;13.60;2.95;;;15.00;99.90;;;;;;5070215;28;20324;-72
2023/10/04 03:43:56;;;;;;;10.27;2.78;;;15.00;99.90;;;;;;5069595;28;20121;-71
2023/10/04 03:46:21;;;;;;;11.93;2.75;;;15.00;99.90;;;;;;5070189;28;20438;-71
2023/10/04 03:48:49;;;;;;;11.25;3.08;;;15.00;99.90;;;;;;5069661;28;20031;-71
2023/10/04 03:51:20;;;;;;;11.07;2.78;;;15.00;99.90;;;;;;5069968;28;20024;-71
2023/10/04 03:53:46;;;;;;;13.20;3.47;;;15.00;99.90;;;;;;5069482;28;20024;-72
2023/10/04 03:56:14;;;;;;;11.95;3.22;;;14.90;99.90;;;;;;5069638;28;20314;-72
2023/10/04 03:58:40;;;;;;;13.38;3.10;;;14.90;99.90;;;;;;5069563;28;20021;-71
2023/10/04 04:01:07;;;;;;;12.95;2.97;;;14.90;99.90;;;;;;5069514;28;20309;-71
2023/10/04 04:03:33;;;;;;;14.02;3.65;;;14.80;99.90;;;;;;5058633;28;20501;-72
2023/10/04 04:05:59;;;;;;;13.88;2.88;;;14.80;99.90;;;;;;5054071;28;20049;-72
2023/10/04 04:08:28;;;;;;;14.30;2.95;;;14.80;99.90;;;;;;5069881;28;20016;-72
2023/10/04 04:10:54;;;;;;;13.98;3.00;;;14.80;99.90;;;;;;5087857;28;20032;-71
2023/10/04 04:13:20;;;;;;;12.10;2.75;;;14.70;99.90;;;;;;5072997;28;20460;-71
2023/10/04 04:15:47;;;;;;;12.15;2.88;;;14.70;99.90;;;;;;5072927;28;20125;-71
2023/10/04 04:18:20;;;;;;;13.40;3.17;;;14.70;99.90;;;;;;5071654;28;20027;-71
2023/10/04 04:20:47;;;;;;;12.30;3.30;;;14.70;99.90;;;;;;5073063;28;20035;-71
2023/10/04 04:23:15;;;;;;;9.32;3.05;;;14.70;99.90;;;;;;5071858;28;20028;-71
2023/10/04 04:25:41;;;;;;;12.50;3.22;;;14.70;99.90;;;;;;5078246;28;20052;-71
2023/10/04 04:28:12;;;;;;;13.75;3.35;;;14.60;99.90;;;;;;5072380;28;20107;-71
2023/10/04 04:30:38;;;;;;;17.98;3.22;;;14.60;99.90;;;;;;5069598;28;20074;-72
2023/10/04 04:33:06;;;;;;;14.18;3.35;;;14.60;99.90;;;;;;5070704;28;20752;-72
2023/10/04 04:38:28;;;;;;;12.68;3.15;;;14.50;99.90;;;;;;5072041;28;20056;-72
2023/10/04 04:40:57;;;;;;;13.95;3.85;;;14.50;99.90;;;;;;5070943;28;20044;-72
2023/10/04 04:43:36;;;;;;;15.57;3.20;;;14.40;99.90;;;;;;5068045;28;20547;-71
2023/10/04 04:46:06;;;;;;;18.70;3.60;;;14.40;99.90;;;;;;5072644;28;20035;-71
2023/10/04 04:48:36;;;;;;;12.05;3.60;;;14.40;99.90;;;;;;5071619;28;20025;-71
2023/10/04 04:51:10;;;;;;;17.65;3.40;;;14.30;99.90;;;;;;5071796;28;20520;-71
2023/10/04 04:53:39;;;;;;;12.18;3.17;;;14.30;99.90;;;;;;5066187;28;20142;-71
2023/10/04 04:56:06;;;;;;;14.00;3.67;;;14.30;99.90;;;;;;5061951;28;20025;-71
2023/10/04 04:58:32;;;;;;;13.50;3.65;;;14.30;99.90;;;;;;5070392;28;20031;-71
2023/10/04 05:01:01;;;;;;;15.55;3.10;;;14.20;99.90;;;;;;5071358;28;20309;-71
2023/10/04 05:03:26;;;;;;;13.85;3.13;;;14.20;99.90;;;;;;5071995;28;20063;-71
2023/10/04 05:05:55;;;;;;;12.75;3.25;;;14.20;99.90;;;;;;5061564;28;20080;-71
2023/10/04 05:08:22;;;;;;;16.20;3.40;;;14.10;99.90;;;;;;5071587;28;20031;-71
2023/10/04 05:10:50;;;;;;;11.40;3.30;;;14.10;99.90;;;;;;5071421;28;20060;-71
2023/10/04 05:13:18;;;;;;;14.50;3.72;;;14.00;99.90;;;;;;5071141;28;20036;-71
2023/10/04 05:15:46;;;;;;;12.55;3.15;;;14.00;99.90;;;;;;5072108;28;20090;-70
2023/10/04 05:18:17;;;;;;;14.27;3.70;;;13.90;99.90;;;;;;5072166;28;20029;-71
2023/10/04 05:20:45;;;;;;;15.20;3.65;;;13.80;99.90;;;;;;5072325;28;20052;-71
2023/10/04 05:23:10;;;;;;;14.05;3.55;;;13.80;99.90;;;;;;5071308;28;20040;-71
2023/10/04 05:25:36;;;;;;;14.13;3.30;;;13.80;99.90;;;;;;5060649;28;20033;-71
2023/10/04 05:28:05;;;;;;;16.00;3.78;;;13.80;99.90;;;;;;5069598;28;20024;-71
2023/10/04 05:30:31;;;;;;;12.70;3.80;;;13.70;99.90;;;;;;5064140;28;20405;-71
2023/10/04 05:32:57;;;;;;;15.00;4.00;;;13.70;99.90;;;;;;5069343;28;20108;-71
2023/10/04 05:35:23;;;;;;;12.55;3.45;;;13.70;99.90;;;;;;5070307;28;20120;-71
2023/10/04 05:37:49;;;;;;;15.38;3.78;;;13.70;99.90;;;;;;5068426;28;20020;-71
2023/10/04 05:40:25;;;;;;;14.52;3.50;;;13.70;99.90;;;;;;5070582;28;20365;-71
2023/10/04 05:42:53;;;;;;;15.30;4.35;;;13.70;99.90;;;;;;5066698;28;20029;-71
2023/10/04 05:45:19;;;;;;;16.67;4.25;;;13.60;99.90;;;;;;5065558;28;20107;-71
2023/10/04 05:47:45;;;;;;;18.63;4.05;;;13.60;99.90;;;;;;5071363;28;20032;-70
2023/10/04 05:50:13;;;;;;;15.90;3.90;;;13.60;99.90;;;;;;5071882;28;20029;-71
2023/10/04 05:52:39;;;;;;;14.77;4.00;;;13.60;99.90;;;;;;5057302;28;20379;-71
2023/10/04 05:55:08;;;;;;;9.80;3.13;;;13.60;99.90;;;;;;5072707;28;20028;-71
2023/10/04 05:57:35;;;;;;;20.40;4.32;;;13.60;99.90;;;;;;5062474;28;20078;-71
2023/10/04 06:00:21;;;;;;;15.20;3.90;;;13.60;99.90;;;;;;5071734;28;20062;-72
2023/10/04 06:02:48;;;;;;;18.42;4.15;;;13.60;99.90;;;;;;5072632;28;20044;-72
2023/10/04 06:05:14;;;;;;;14.57;3.78;;;13.60;99.90;;;;;;5071807;28;20052;-75
2023/10/04 06:07:40;;;;;;;16.08;4.20;;;13.60;99.90;;;;;;5060997;28;20035;-72
2023/10/04 06:10:06;;;;;;;18.17;4.15;;;13.60;99.90;;;;;;5071083;28;20028;-72
2023/10/04 06:12:32;;;;;;;15.90;4.03;;;13.60;99.90;;;;;;5070567;28;20021;-72
2023/10/04 06:14:57;;;;;;;14.38;4.00;;;13.60;99.90;;;;;;5068220;28;20074;-71
2023/10/04 06:17:23;;;;;;;16.10;4.03;;;13.60;99.90;;;;;;5067879;28;20017;-71
2023/10/04 06:19:51;;;;;;;18.00;4.15;;;13.60;99.90;;;;;;5069454;28;20024;-71
2023/10/04 06:22:17;;;;;;;18.25;4.60;;;13.60;99.90;;;;;;5070764;28;20495;-71
2023/10/04 06:24:43;;;;;;;18.58;4.65;;;13.70;99.90;;;;;;5070489;28;20561;-71
2023/10/04 06:27:09;;;;;;;16.80;4.32;;;13.70;99.90;;;;;;5069832;28;20024;-71
2023/10/04 06:29:34;;;;;;;20.27;4.50;;;13.70;99.90;;;;;;5068989;28;20292;-71
2023/10/04 06:32:00;;;;;;;20.27;4.57;;;13.70;99.90;;;;;;5066683;28;20094;-71
2023/10/04 06:34:27;;;;;;;17.33;3.85;;;13.70;99.90;;;;;;5065654;28;20033;-71
2023/10/04 06:36:52;;;;;;;16.88;4.15;;;13.70;99.90;;;;;;5070524;28;20047;-72
2023/10/04 06:39:18;;;;;;;20.27;4.53;;;13.70;99.90;;;;;;5065719;28;20017;-72
2023/10/04 06:41:44;;;;;;;19.55;4.10;;;13.80;99.90;;;;;;5066323;28;20081;-72
2023/10/04 06:44:10;;;;;;;15.15;4.38;;;13.80;99.90;;;;;;5063119;28;20020;-71
2023/10/04 06:46:36;;;;;;;14.80;3.88;;;13.80;99.90;;;;;;5070074;28;20024;-71
2023/10/04 06:49:05;;;;;;;18.90;4.35;;;13.90;99.90;;;;;;5069298;28;20054;-71
2023/10/04 06:51:30;;;;;;;18.17;4.18;;;13.90;99.90;;;;;;5069988;28;20035;-71
2023/10/04 06:53:56;;;;;;;17.25;4.47;;;14.00;99.90;;;;;;5069137;28;20025;-70
2023/10/04 06:56:22;;;;;;;19.27;4.60;;;14.10;99.90;;;;;;5059720;28;20533;-71
2023/10/04 06:58:48;;;;;;;17.77;4.53;;;14.10;99.90;;;;;;5069662;28;20099;-71
2023/10/04 07:01:16;;;;;;;20.83;4.55;;;14.20;99.90;;;;;;5070152;28;20035;-71
2023/10/04 07:03:43;;;;;;;15.65;4.68;;;14.20;99.90;;;;;;5070151;28;20021;-71
2023/10/04 07:06:09;;;;;;;18.08;4.68;;;14.30;99.90;;;;;;5070157;28;20049;-72
2023/10/04 07:08:35;;;;;;;21.55;4.78;;;14.40;99.90;;;;;;5069265;28;20142;-71
2023/10/04 07:11:03;;;;;;;19.52;4.95;;;14.40;99.90;;;;;;5070143;28;20407;-71
2023/10/04 07:13:32;;;;;;;22.20;4.88;;;14.50;99.90;;;;;;5069998;28;20052;-71
2023/10/04 07:15:58;;;;;;;20.85;4.93;;;14.60;99.90;;;;;;5070177;28;20406;-71
2023/10/04 07:18:24;;;;;;;25.75;5.28;;;14.60;99.90;;;;;;5069858;28;20017;-71
2023/10/04 07:20:50;;;;;;;17.20;4.53;;;14.70;99.90;;;;;;5069176;28;20098;-71
2023/10/04 07:23:16;;;;;;;19.38;4.70;;;14.70;99.90;;;;;;5069976;28;20036;-71
2023/10/04 07:25:44;;;;;;;18.75;5.47;;;14.80;99.90;;;;;;5065682;28;20023;-71
2023/10/04 07:28:11;;;;;;;26.92;5.05;;;14.90;99.90;;;;;;5071220;28;20027;-72
2023/10/04 07:30:38;;;;;;;28.17;5.35;;;14.90;99.90;;;;;;5071072;28;20301;-71
2023/10/04 07:33:04;;;;;;;22.45;5.00;;;15.00;99.90;;;;;;5070758;28;20028;-72
2023/10/04 07:35:31;;;;;;;20.77;5.35;;;15.00;99.90;;;;;;5070804;28;20017;-71
2023/10/04 07:38:01;;;;;;;18.83;4.88;;;15.10;99.90;;;;;;5059701;28;20017;-71
2023/10/04 07:40:27;;;;;;;25.80;5.63;;;15.10;99.90;;;;;;5069770;28;20031;-71
2023/10/04 07:42:54;;;;;;;20.90;4.80;;;15.10;99.90;;;;;;5070000;28;20025;-71
2023/10/04 07:45:25;;;;;;;16.50;4.47;;;15.20;99.90;;;;;;5071468;28;20366;-71
2023/10/04 07:47:51;;;;;;;17.75;4.75;;;15.20;99.90;;;;;;5073762;28;20025;-71
2023/10/04 07:50:25;;;;;;;23.55;4.97;;;15.30;99.90;;;;;;5073290;28;20097;-71
2023/10/04 07:53:04;;;;;;;21.75;5.13;;;15.40;99.90;;;;;;5074019;28;20700;-71
2023/10/04 07:55:30;;;;;;;16.83;4.43;;;15.40;99.90;;;;;;5068828;28;20052;-71
2023/10/04 07:58:04;;;;;;;25.35;5.90;;;15.50;99.90;;;;;;5072846;28;20032;-71
2023/10/04 08:00:31;;;;;;;21.33;5.30;;;15.50;99.90;;;;;;5073212;28;20395;-71
2023/10/04 08:02:57;;;;;;;20.45;5.30;;;15.60;99.90;;;;;;5072459;28;20042;-71
2023/10/04 08:05:25;;;;;;;20.83;5.13;;;15.60;99.90;;;;;;5073354;28;20056;-71
2023/10/04 08:07:51;;;;;;;20.00;4.97;;;15.60;99.90;;;;;;5072719;28;20495;-71
2023/10/04 08:10:23;;;;;;;23.55;4.97;;;15.70;99.90;;;;;;5073185;28;20028;-71
2023/10/04 08:12:52;;;;;;;18.35;4.80;;;15.70;99.90;;;;;;5072800;28;20484;-71
2023/10/04 08:15:19;;;;;;;16.80;5.00;;;15.80;99.90;;;;;;5073244;28;20024;-71
2023/10/04 08:17:48;;;;;;;22.75;5.00;;;15.80;99.90;;;;;;5072498;28;20044;-70
2023/10/04 08:20:14;;;;;;;15.93;4.25;;;15.90;99.90;;;;;;5072988;28;20435;-70
2023/10/04 08:22:41;;;;;;;21.42;5.18;;;15.90;99.90;;;;;;5072644;28;20040;-70
2023/10/04 08:25:18;;;;;;;21.95;4.90;;;16.00;99.90;;;;;;5072741;28;20415;-71
2023/10/04 08:27:45;;;;;;;19.25;4.65;;;16.10;99.90;;;;;;5072446;28;20422;-71
2023/10/04 08:30:13;;;;;;;19.05;4.93;;;16.10;99.90;;;;;;5072632;28;20487;-70
2023/10/04 08:32:43;;;;;;;21.38;5.30;;;16.20;99.90;;;;;;5072759;28;20024;-71
2023/10/04 08:35:24;;;;;;;17.05;4.50;;;16.30;99.90;;;;;;5070992;28;20012;-71
2023/10/04 08:37:55;;;;;;;17.00;5.03;;;16.30;99.90;;;;;;5072210;28;20317;-71
2023/10/04 08:40:28;;;;;;;17.60;4.50;;;16.40;99.90;;;;;;5071849;28;20028;-71
2023/10/04 08:42:55;;;;;;;21.67;5.60;;;16.50;99.90;;;;;;5067434;28;20456;-71
2023/10/04 08:45:21;;;;;;;25.05;5.25;;;16.60;99.90;;;;;;5067701;28;20024;-71
2023/10/04 08:47:51;;;;;;;19.02;4.75;;;16.60;99.90;;;;;;5063966;28;20029;-71
2023/10/04 08:50:50;;;;;;;17.83;4.88;;;16.60;99.90;;;;;;5072159;28;20025;-72
2023/10/04 08:53:55;;;;;;;21.17;4.68;;;16.60;99.90;;;;;;5074452;28;20033;-72
2023/10/04 08:56:24;;;;;;;17.30;4.53;;;16.60;99.90;;;;;;5075990;28;20025;-72
2023/10/04 08:58:50;;;;;;;23.83;5.30;;;16.60;99.90;;;;;;5061186;28;20028;-72
2023/10/04 09:01:19;;;;;;;15.35;4.88;;;16.60;99.90;;;;;;5071407;28;20384;-71
2023/10/04 09:03:47;;;;;;;19.77;4.95;;;16.60;99.90;;;;;;5064339;28;20052;-71
2023/10/04 09:06:17;;;;;;;14.57;5.03;;;16.70;99.90;;;;;;5068526;28;20067;-71
2023/10/04 09:08:44;;;;;;;16.77;5.00;;;16.70;99.90;;;;;;5072081;28;20055;-71
2023/10/04 09:11:15;;;;;;;22.27;4.50;;;16.80;99.90;;;;;;5071470;28;20024;-70
2023/10/04 09:13:47;;;;;;;20.20;4.82;;;16.90;99.90;;;;;;5071633;28;20031;-70
2023/10/04 09:16:28;;;;;;;16.50;4.68;;;16.90;99.90;;;;;;5071702;28;20407;-70
2023/10/04 09:19:18;;;;;;;21.27;4.28;;;17.00;99.90;;;;;;5071626;28;20024;-71
2023/10/04 09:21:50;;;;;;;18.05;4.53;;;17.10;99.90;;;;;;5062172;28;20443;-71
2023/10/04 09:24:16;;;;;;;20.83;4.35;;;17.20;99.90;;;;;;5063569;28;20305;-71
2023/10/04 09:26:54;;;;;;;15.93;4.55;;;17.20;99.90;;;;;;5067926;28;20379;-70
2023/10/04 09:29:29;;;;;;;12.93;4.28;;;17.30;99.90;;;;;;5071275;28;20432;-71
2023/10/04 09:31:55;;;;;;;16.75;4.20;;;17.30;99.90;;;;;;5070954;28;20479;-71
2023/10/04 09:34:24;;;;;;;19.83;3.92;;;17.30;99.90;;;;;;5070929;28;20368;-71
2023/10/04 09:36:52;;;;;;;16.67;4.07;;;17.30;99.90;;;;;;5070593;28;20056;-71
2023/10/04 09:39:24;;;;;;;16.40;4.30;;;17.30;99.90;;;;;;5070917;28;20016;-71
2023/10/04 09:41:51;;;;;;;18.40;4.53;;;17.30;99.90;;;;;;5070713;28;20024;-71
2023/10/04 09:44:23;;;;;;;22.23;4.68;;;17.40;99.90;;;;;;5070508;28;20020;-71
2023/10/04 09:47:00;;;;;;;24.08;4.70;;;17.40;99.90;;;;;;5070876;28;20433;-71
2023/10/04 09:49:33;;;;;;;22.85;4.85;;;17.30;99.90;;;;;;5061371;28;20016;-71
2023/10/04 09:52:06;;;;;;;27.90;5.00;;;17.20;99.90;;;;;;5067283;28;20138;-71
2023/10/04 09:54:33;;;;;;;24.15;6.05;;;17.20;99.90;;;;;;5068864;28;20028;-71
2023/10/04 09:57:03;;;;;;;24.05;4.80;;;17.10;99.90;;;;;;5070857;28;20027;-71
2023/10/04 09:59:29;;;;;;;18.67;4.20;;;17.00;99.90;;;;;;5067181;28;20020;-71
2023/10/04 10:01:56;;;;;;;18.00;4.68;;;16.90;99.90;;;;;;5064325;28;20029;-71
2023/10/04 10:04:27;;;;;;;25.40;5.00;;;16.90;99.90;;;;;;5066596;28;20043;-71
2023/10/04 10:07:13;;;;;;;20.25;4.25;;;16.90;99.90;;;;;;5062229;28;20045;-71
2023/10/04 10:10:16;;;;;;;22.20;4.85;;;16.80;99.90;;;;;;5070126;28;20031;-71
2023/10/04 10:12:43;;;;;;;16.52;4.22;;;16.70;99.90;;;;;;5068027;28;20077;-71
2023/10/04 10:15:11;;;;;;;15.18;3.78;;;16.70;99.90;;;;;;5070434;28;20028;-71
2023/10/04 10:17:38;;;;;;;14.30;3.95;;;16.70;99.90;;;;;;5070298;28;20020;-71
2023/10/04 10:20:09;;;;;;;16.25;3.92;;;16.90;99.90;;;;;;5065394;28;20093;-71
2023/10/04 10:22:54;;;;;;;19.25;4.00;;;17.00;99.90;;;;;;5062172;28;20119;-71
2023/10/04 10:25:20;;;;;;;;;;;17.10;99.90;;;;;;5066567;28;20447;-71
2023/10/04 10:27:46;;;;;;;15.25;3.72;;;17.30;99.90;;;;;;5068897;28;19908;-71
2023/10/04 10:30:16;;;;;;;14.00;4.20;;;17.40;99.90;;;;;;5067464;28;20092;-71
2023/10/04 10:33:12;;;;;;;12.43;3.40;;;17.50;99.90;;;;;;5070565;28;20020;-71
2023/10/04 10:35:48;;;;;;;;;;;17.70;99.90;;;;;;5074043;28;20036;-70
2023/10/04 10:38:33;;;;;;;;;;;17.70;99.90;;;;;;5064263;28;19912;-70
2023/10/04 10:40:58;;;;;;;15.32;3.78;;;17.70;99.90;;;;;;5066821;28;19919;-70
2023/10/04 10:43:24;;;;;;;13.18;3.40;;;17.80;99.90;;;;;;5064788;28;20519;-70
2023/10/04 10:45:50;;;;;;;15.35;3.80;;;17.90;99.90;;;;;;5069946;28;20021;-70
2023/10/04 10:48:16;;;;;;;14.52;3.70;;;17.90;99.90;;;;;;5070029;28;20097;-70
2023/10/04 10:50:42;;;;;;;12.07;3.58;;;18.00;99.90;;;;;;5069309;28;20028;-70
2023/10/04 10:53:10;;;;;;;13.20;3.70;;;18.00;99.90;;;;;;5068863;28;20028;-71
2023/10/04 10:55:39;;;;;;;12.85;3.75;;;18.00;99.90;;;;;;5069677;28;20016;-71
2023/10/04 10:58:07;;;;;;;14.93;3.67;;;18.00;99.90;;;;;;5069954;28;20545;-71
2023/10/04 11:00:34;;;;;;;15.77;4.45;;;18.00;99.90;;;;;;5069617;28;20040;-71
2023/10/04 11:03:04;;;;;;;18.95;4.78;;;18.00;99.90;;;;;;5068282;28;20021;-71
2023/10/04 11:05:30;;;;;;;16.77;4.20;;;18.00;99.90;;;;;;5068348;28;20131;-71
2023/10/04 11:07:56;;;;;;;12.15;4.25;;;18.00;99.90;;;;;;5069861;28;20167;-70
2023/10/04 11:10:24;;;;;;;16.60;4.13;;;18.00;99.90;;;;;;5069761;28;20100;-70
2023/10/04 11:12:53;;;;;;;13.07;3.55;;;18.00;99.90;;;;;;5070014;28;20027;-73
2023/10/04 11:15:23;;;;;;;18.00;4.00;;;18.00;99.90;;;;;;5067476;28;20024;-70
2023/10/04 11:17:49;;;;;;;13.02;3.40;;;17.90;99.90;;;;;;5069658;28;20082;-71
2023/10/04 11:20:17;;;;;;;13.90;2.97;;;17.90;99.90;;;;;;5072749;28;20025;-71
2023/10/04 11:22:45;;;;;;;12.65;2.90;;;17.90;99.90;;;;;;5071921;28;20103;-71
2023/10/04 11:25:13;;;;;;;12.77;3.03;;;17.80;99.90;;;;;;5068002;28;20094;-72
2023/10/04 11:27:45;;;;;;;14.85;2.88;;;17.70;99.90;;;;;;5065851;28;20025;-71
2023/10/04 11:30:22;;;;;;;18.17;3.13;;;17.70;99.90;;;;;;5069125;28;20044;-71
2023/10/04 11:32:48;;;;;;;9.88;2.65;;;17.60;99.90;;;;;;5073537;28;20031;-71
2023/10/04 11:35:19;;;;;;;10.65;2.75;;;17.60;99.90;;;;;;5070634;28;20395;-71
2023/10/04 11:37:47;;;;;;;8.05;2.03;;;17.50;99.90;;;;;;5066639;28;20532;-71
2023/10/04 11:40:16;;;;;;;8.13;2.35;;;17.60;99.90;;;;;;5085536;28;20025;-71
2023/10/04 11:42:42;;;;;;;12.20;2.65;;;17.70;99.90;;;;;;5073379;28;20024;-71
2023/10/04 11:45:26;;;;;;;14.23;2.38;;;17.70;99.90;;;;;;5068500;28;20029;-71
2023/10/04 11:48:00;;;;;;;11.77;2.63;;;17.90;99.90;;;;;;5071493;28;20514;-71
2023/10/04 11:50:44;;;;;;;11.00;1.90;;;17.90;99.90;;;;;;5067211;28;20089;-71
2023/10/04 11:53:13;;;;;;;11.88;2.08;;;18.00;99.90;;;;;;5073031;28;20333;-71
2023/10/04 11:55:39;;;;;;;13.35;2.40;;;18.10;99.90;;;;;;5073165;28;20051;-71
2023/10/04 11:58:06;;;;;;;9.77;1.90;;;18.10;99.90;;;;;;5072735;28;20056;-71
2023/10/04 12:00:32;;;;;;;10.00;2.10;;;18.30;99.90;;;;;;5071875;28;20035;-71
2023/10/04 12:02:59;;;;;;;13.75;2.22;;;18.30;99.90;;;;;;5069480;28;20117;-71
2023/10/04 12:05:25;;;;;;;9.73;2.00;;;18.30;99.90;;;;;;5071400;28;20064;-71
2023/10/04 12:07:51;;;;;;;10.30;2.22;;;18.30;99.90;;;;;;5072855;28;20024;-71
2023/10/04 12:10:18;;;;;;;8.45;1.90;;;18.30;99.90;;;;;;5072900;28;20028;-71
2023/10/04 12:12:45;;;;;;;13.15;2.30;;;18.20;99.90;;;;;;5061948;28;20016;-71
2023/10/04 12:15:11;;;;;;;10.73;2.00;;;18.20;99.90;;;;;;5073113;28;20021;-71
2023/10/04 12:17:37;;;;;;;11.63;2.00;;;18.20;99.90;;;;;;5072705;28;20506;-71
2023/10/04 12:20:04;;;;;;;10.57;1.98;;;18.30;99.90;;;;;;5072887;28;20112;-71
2023/10/04 12:22:30;;;;;;;13.35;2.10;;;18.30;99.90;;;;;;5065640;28;20028;-71
2023/10/04 12:24:56;;;;;;;8.43;1.77;;;18.20;99.90;;;;;;5064203;28;20113;-71
2023/10/04 12:27:24;;;;;;;11.20;2.20;;;18.20;99.90;;;;;;5072070;28;20017;-71
2023/10/04 12:29:50;;;;;;;12.70;1.75;;;18.20;99.90;;;;;;5071428;28;20468;-72
2023/10/04 12:32:19;;;;;;;11.98;1.95;;;18.30;99.90;;;;;;5071998;28;20063;-70
2023/10/04 12:34:45;;;;;;;11.82;1.92;;;18.30;99.90;;;;;;5072621;28;20025;-70
2023/10/04 12:37:12;;;;;;;10.55;1.77;;;18.30;99.90;;;;;;5066907;28;20432;-72
2023/10/04 12:39:38;;;;;;;9.45;1.73;;;18.30;99.90;;;;;;5063476;28;20056;-72
2023/10/04 12:42:04;;;;;;;10.70;1.83;;;18.30;99.90;;;;;;5072047;28;20032;-72
2023/10/04 12:44:30;;;;;;;9.60;1.90;;;18.30;99.90;;;;;;5072545;28;20029;-72
2023/10/04 12:46:58;;;;;;;8.00;1.60;;;18.20;99.90;;;;;;5072359;28;20020;-72
2023/10/04 12:49:23;;;;;;;13.02;1.92;;;18.10;99.90;;;;;;5072528;28;20095;-70